createdAt,value
2018-05-10T00:00:08.188Z,14.05
2018-05-10T00:01:08.860Z,14.14
2018-05-10T00:02:09.582Z,14.05
2018-05-10T00:03:10.257Z,13.96
2018-05-10T00:04:10.927Z,13.75
2018-05-10T00:05:11.599Z,13.72
2018-05-10T00:06:12.274Z,13.72
2018-05-10T00:07:12.945Z,13.67
2018-05-10T00:08:13.621Z,13.71
2018-05-10T00:09:14.293Z,13.75
2018-05-10T00:10:14.966Z,13.75
2018-05-10T00:11:15.640Z,13.86
2018-05-10T00:12:16.310Z,13.86
2018-05-10T00:13:16.981Z,13.79
2018-05-10T00:14:17.652Z,13.87
2018-05-10T00:15:18.328Z,13.92
2018-05-10T00:16:19.009Z,13.85
2018-05-10T00:17:19.681Z,13.89
2018-05-10T00:18:20.351Z,13.86
2018-05-10T00:19:21.022Z,13.90
2018-05-10T00:20:21.694Z,13.87
2018-05-10T00:21:22.376Z,13.90
2018-05-10T00:22:23.054Z,13.89
2018-05-10T00:23:23.729Z,13.97
2018-05-10T00:24:24.468Z,13.90
2018-05-10T00:25:25.077Z,13.92
2018-05-10T00:26:25.749Z,13.86
2018-05-10T00:27:26.420Z,13.85
2018-05-10T00:28:27.091Z,13.96
2018-05-10T00:29:27.762Z,13.97
2018-05-10T00:30:28.438Z,13.96
2018-05-10T00:31:29.109Z,14.00
2018-05-10T00:32:29.779Z,14.00
2018-05-10T00:33:30.466Z,13.99
2018-05-10T00:34:31.355Z,13.87
2018-05-10T00:35:32.026Z,13.96
2018-05-10T00:36:32.700Z,13.99
2018-05-10T00:37:33.372Z,14.05
2018-05-10T00:38:34.041Z,14.11
2018-05-10T00:39:34.710Z,14.05
2018-05-10T00:40:35.389Z,13.97
2018-05-10T00:41:36.058Z,13.92
2018-05-10T00:42:36.735Z,13.92
2018-05-10T00:43:37.402Z,13.86
2018-05-10T00:44:38.072Z,13.86
2018-05-10T00:45:38.746Z,13.89
2018-05-10T00:46:39.426Z,13.99
2018-05-10T00:47:40.100Z,13.93
2018-05-10T00:48:40.768Z,13.95
2018-05-10T00:49:41.437Z,13.95
2018-05-10T00:50:42.116Z,13.93
2018-05-10T00:51:42.789Z,13.99
2018-05-10T00:52:43.459Z,13.96
2018-05-10T00:53:44.129Z,13.97
2018-05-10T00:54:44.801Z,13.87
2018-05-10T00:55:45.472Z,13.90
2018-05-10T00:56:46.147Z,13.90
2018-05-10T00:57:46.819Z,13.96
2018-05-10T00:58:47.489Z,13.93
2018-05-10T00:59:48.160Z,13.93
2018-05-10T01:00:48.832Z,14.04
2018-05-10T01:01:49.504Z,13.96
2018-05-10T01:02:50.177Z,14.03
2018-05-10T01:03:50.847Z,13.95
2018-05-10T01:04:51.607Z,13.96
2018-05-10T01:05:52.194Z,13.86
2018-05-10T01:06:52.868Z,13.92
2018-05-10T01:07:53.540Z,13.81
2018-05-10T01:08:54.215Z,13.92
2018-05-10T01:09:54.884Z,13.86
2018-05-10T01:10:55.553Z,13.77
2018-05-10T01:11:56.229Z,13.81
2018-05-10T01:12:56.896Z,13.85
2018-05-10T01:13:57.569Z,13.86
2018-05-10T01:14:58.245Z,13.72
2018-05-10T01:15:58.917Z,13.78
2018-05-10T01:16:59.589Z,13.77
2018-05-10T01:18:00.259Z,13.72
2018-05-10T01:19:00.930Z,13.77
2018-05-10T01:20:01.604Z,13.72
2018-05-10T01:21:02.273Z,13.77
2018-05-10T01:22:02.946Z,13.83
2018-05-10T01:23:03.619Z,13.79
2018-05-10T01:24:04.290Z,13.81
2018-05-10T01:25:04.960Z,13.86
2018-05-10T01:26:05.631Z,13.75
2018-05-10T01:27:06.304Z,13.78
2018-05-10T01:28:06.977Z,13.68
2018-05-10T01:29:07.647Z,13.68
2018-05-10T01:30:08.318Z,13.71
2018-05-10T01:31:08.992Z,13.62
2018-05-10T01:32:09.668Z,13.65
2018-05-10T01:33:10.341Z,13.52
2018-05-10T01:34:11.012Z,13.52
2018-05-10T01:35:11.685Z,13.56
2018-05-10T01:36:12.361Z,13.46
2018-05-10T01:37:13.035Z,13.47
2018-05-10T01:38:13.716Z,13.53
2018-05-10T01:39:14.397Z,13.49
2018-05-10T01:40:15.069Z,13.53
2018-05-10T01:41:15.737Z,13.54
2018-05-10T01:42:16.426Z,13.47
2018-05-10T01:43:17.100Z,13.47
2018-05-10T01:44:17.772Z,13.52
2018-05-10T01:45:18.444Z,13.50
2018-05-10T01:46:19.115Z,13.53
2018-05-10T01:47:19.785Z,13.52
2018-05-10T01:48:20.456Z,13.56
2018-05-10T01:49:21.125Z,13.53
2018-05-10T01:50:21.796Z,13.47
2018-05-10T01:51:22.470Z,13.46
2018-05-10T01:52:23.141Z,13.46
2018-05-10T01:53:23.815Z,13.50
2018-05-10T01:54:24.497Z,13.35
2018-05-10T01:55:25.170Z,13.54
2018-05-10T01:56:25.841Z,13.49
2018-05-10T01:57:26.511Z,13.49
2018-05-10T01:58:27.182Z,13.50
2018-05-10T01:59:27.854Z,13.46
2018-05-10T02:00:28.525Z,13.38
2018-05-10T02:01:29.199Z,13.52
2018-05-10T02:02:29.871Z,13.42
2018-05-10T02:03:30.543Z,13.52
2018-05-10T02:04:31.214Z,13.46
2018-05-10T02:05:31.887Z,13.44
2018-05-10T02:06:32.556Z,13.37
2018-05-10T02:07:33.230Z,13.46
2018-05-10T02:08:33.903Z,13.53
2018-05-10T02:09:34.577Z,13.35
2018-05-10T02:10:35.261Z,13.54
2018-05-10T02:11:35.924Z,13.47
2018-05-10T02:12:36.594Z,13.37
2018-05-10T02:13:37.265Z,13.41
2018-05-10T02:14:37.939Z,13.38
2018-05-10T02:15:38.606Z,13.41
2018-05-10T02:16:39.278Z,13.28
2018-05-10T02:17:39.948Z,13.37
2018-05-10T02:18:40.621Z,13.31
2018-05-10T02:19:41.292Z,13.33
2018-05-10T02:20:41.975Z,13.27
2018-05-10T02:21:42.645Z,13.30
2018-05-10T02:22:43.313Z,13.39
2018-05-10T02:23:44.058Z,13.37
2018-05-10T02:24:44.661Z,13.33
2018-05-10T02:25:45.340Z,13.38
2018-05-10T02:26:46.011Z,13.39
2018-05-10T02:27:46.682Z,13.41
2018-05-10T02:28:47.358Z,13.38
2018-05-10T02:29:48.113Z,13.39
2018-05-10T02:30:48.698Z,13.37
2018-05-10T02:31:49.368Z,13.38
2018-05-10T02:32:50.039Z,13.31
2018-05-10T02:33:50.709Z,13.35
2018-05-10T02:34:51.383Z,13.35
2018-05-10T02:35:52.052Z,13.28
2018-05-10T02:36:52.727Z,13.35
2018-05-10T02:37:53.401Z,13.27
2018-05-10T02:38:54.075Z,13.27
2018-05-10T02:39:54.753Z,13.19
2018-05-10T02:40:55.419Z,13.13
2018-05-10T02:41:56.096Z,13.27
2018-05-10T02:42:56.768Z,13.25
2018-05-10T02:43:57.442Z,13.12
2018-05-10T02:44:58.235Z,13.25
2018-05-10T02:45:58.792Z,13.25
2018-05-10T02:46:59.464Z,13.25
2018-05-10T02:48:00.140Z,13.23
2018-05-10T02:49:00.808Z,13.22
2018-05-10T02:50:01.490Z,13.22
2018-05-10T02:51:02.154Z,13.23
2018-05-10T02:52:02.825Z,13.25
2018-05-10T02:53:03.507Z,13.16
2018-05-10T02:54:04.180Z,13.30
2018-05-10T02:55:04.851Z,13.23
2018-05-10T02:56:05.522Z,13.25
2018-05-10T02:57:06.200Z,13.18
2018-05-10T02:58:06.870Z,12.95
2018-05-10T02:59:07.544Z,12.87
2018-05-10T03:00:08.209Z,12.82
2018-05-10T03:01:08.884Z,12.87
2018-05-10T03:02:09.556Z,12.82
2018-05-10T03:03:10.229Z,12.78
2018-05-10T03:04:10.902Z,12.83
2018-05-10T03:05:11.571Z,12.79
2018-05-10T03:06:12.252Z,12.78
2018-05-10T03:07:12.939Z,12.75
2018-05-10T03:08:13.612Z,12.86
2018-05-10T03:09:14.296Z,12.79
2018-05-10T03:10:14.970Z,12.78
2018-05-10T03:11:15.645Z,12.75
2018-05-10T03:12:16.315Z,12.65
2018-05-10T03:13:16.986Z,12.64
2018-05-10T03:14:17.663Z,12.57
2018-05-10T03:15:18.333Z,12.58
2018-05-10T03:16:19.010Z,12.68
2018-05-10T03:17:19.683Z,12.67
2018-05-10T03:18:20.357Z,12.68
2018-05-10T03:19:21.118Z,12.58
2018-05-10T03:20:21.709Z,12.64
2018-05-10T03:21:22.381Z,12.58
2018-05-10T03:22:23.054Z,12.57
2018-05-10T03:23:23.727Z,12.50
2018-05-10T03:24:24.396Z,12.64
2018-05-10T03:25:25.069Z,12.64
2018-05-10T03:26:25.741Z,12.61
2018-05-10T03:27:26.412Z,12.57
2018-05-10T03:28:27.085Z,12.47
2018-05-10T03:29:27.756Z,12.47
2018-05-10T03:30:28.438Z,12.53
2018-05-10T03:31:29.114Z,12.49
2018-05-10T03:32:29.786Z,12.50
2018-05-10T03:33:30.459Z,12.54
2018-05-10T03:34:31.133Z,12.61
2018-05-10T03:35:31.807Z,12.58
2018-05-10T03:36:32.486Z,12.58
2018-05-10T03:37:33.165Z,12.62
2018-05-10T03:38:33.831Z,12.55
2018-05-10T03:39:34.502Z,12.54
2018-05-10T03:40:35.247Z,12.43
2018-05-10T03:41:35.850Z,12.54
2018-05-10T03:42:36.523Z,12.53
2018-05-10T03:43:37.204Z,12.53
2018-05-10T03:44:37.869Z,12.53
2018-05-10T03:45:38.549Z,12.49
2018-05-10T03:46:39.216Z,12.50
2018-05-10T03:47:39.895Z,12.50
2018-05-10T03:48:40.566Z,12.62
2018-05-10T03:49:41.237Z,12.49
2018-05-10T03:50:41.909Z,12.58
2018-05-10T03:51:42.583Z,12.57
2018-05-10T03:52:43.254Z,12.60
2018-05-10T03:53:43.928Z,12.58
2018-05-10T03:54:44.602Z,12.45
2018-05-10T03:55:45.280Z,12.50
2018-05-10T03:56:46.033Z,12.47
2018-05-10T03:57:46.626Z,12.50
2018-05-10T03:58:47.304Z,12.47
2018-05-10T03:59:47.973Z,12.39
2018-05-10T04:00:48.648Z,12.47
2018-05-10T04:01:49.329Z,12.40
2018-05-10T04:02:50.005Z,12.37
2018-05-10T04:03:50.677Z,12.39
2018-05-10T04:04:51.350Z,12.46
2018-05-10T04:05:52.023Z,12.42
2018-05-10T04:06:52.694Z,12.40
2018-05-10T04:07:53.368Z,12.49
2018-05-10T04:08:54.039Z,12.37
2018-05-10T04:09:54.710Z,12.46
2018-05-10T04:10:55.387Z,12.46
2018-05-10T04:11:56.062Z,12.37
2018-05-10T04:12:56.744Z,12.42
2018-05-10T04:13:57.417Z,12.37
2018-05-10T04:14:58.090Z,12.37
2018-05-10T04:15:58.763Z,12.37
2018-05-10T04:16:59.440Z,12.36
2018-05-10T04:18:00.111Z,12.45
2018-05-10T04:19:00.786Z,12.40
2018-05-10T04:20:01.469Z,12.42
2018-05-10T04:21:02.141Z,12.39
2018-05-10T04:22:02.811Z,12.39
2018-05-10T04:23:03.485Z,12.43
2018-05-10T04:24:04.161Z,12.40
2018-05-10T04:25:04.839Z,12.49
2018-05-10T04:26:05.512Z,12.54
2018-05-10T04:27:06.188Z,12.50
2018-05-10T04:28:06.860Z,12.65
2018-05-10T04:29:07.529Z,12.58
2018-05-10T04:30:08.205Z,12.61
2018-05-10T04:31:08.883Z,12.60
2018-05-10T04:32:09.560Z,12.65
2018-05-10T04:33:10.235Z,12.62
2018-05-10T04:34:10.910Z,12.60
2018-05-10T04:35:11.590Z,12.70
2018-05-10T04:36:12.259Z,12.70
2018-05-10T04:37:12.934Z,12.65
2018-05-10T04:38:13.606Z,12.57
2018-05-10T04:39:14.283Z,12.64
2018-05-10T04:40:14.956Z,12.65
2018-05-10T04:41:15.628Z,12.64
2018-05-10T04:42:16.416Z,12.65
2018-05-10T04:43:16.991Z,12.67
2018-05-10T04:44:17.665Z,12.70
2018-05-10T04:45:18.341Z,12.70
2018-05-10T04:46:19.018Z,12.80
2018-05-10T04:47:19.702Z,12.78
2018-05-10T04:48:20.374Z,12.79
2018-05-10T04:49:21.045Z,12.82
2018-05-10T04:50:21.720Z,12.82
2018-05-10T04:51:22.395Z,12.80
2018-05-10T04:52:23.074Z,12.80
2018-05-10T04:53:23.750Z,12.79
2018-05-10T04:54:24.427Z,12.87
2018-05-10T04:55:25.098Z,12.97
2018-05-10T04:56:25.776Z,12.95
2018-05-10T04:57:26.448Z,12.91
2018-05-10T04:58:27.121Z,12.95
2018-05-10T04:59:27.795Z,12.93
2018-05-10T05:00:28.477Z,13.03
2018-05-10T05:01:29.155Z,12.93
2018-05-10T05:02:29.832Z,12.94
2018-05-10T05:03:30.515Z,13.00
2018-05-10T05:04:31.185Z,13.04
2018-05-10T05:05:31.863Z,13.05
2018-05-10T05:06:32.537Z,13.03
2018-05-10T05:07:33.219Z,13.05
2018-05-10T05:08:33.890Z,13.18
2018-05-10T05:09:34.561Z,13.08
2018-05-10T05:10:35.238Z,13.12
2018-05-10T05:11:35.911Z,13.12
2018-05-10T05:12:36.581Z,13.16
2018-05-10T05:13:37.260Z,13.20
2018-05-10T05:14:37.954Z,13.16
2018-05-10T05:15:38.625Z,13.27
2018-05-10T05:16:39.298Z,13.28
2018-05-10T05:17:39.976Z,13.37
2018-05-10T05:18:40.652Z,13.39
2018-05-10T05:19:41.331Z,13.42
2018-05-10T05:20:42.006Z,13.39
2018-05-10T05:21:42.684Z,13.37
2018-05-10T05:22:43.360Z,13.42
2018-05-10T05:23:44.035Z,13.53
2018-05-10T05:24:44.712Z,13.42
2018-05-10T05:25:45.384Z,13.37
2018-05-10T05:26:46.076Z,13.44
2018-05-10T05:27:46.740Z,13.41
2018-05-10T05:28:47.413Z,13.39
2018-05-10T05:29:48.089Z,13.41
2018-05-10T05:30:48.772Z,13.52
2018-05-10T05:31:49.448Z,13.44
2018-05-10T05:32:50.127Z,13.47
2018-05-10T05:33:50.802Z,13.49
2018-05-10T05:34:51.479Z,13.50
2018-05-10T05:35:52.154Z,13.42
2018-05-10T05:36:52.832Z,13.44
2018-05-10T05:37:53.504Z,13.56
2018-05-10T05:38:54.182Z,13.60
2018-05-10T05:39:54.858Z,13.63
2018-05-10T05:40:55.537Z,13.63
2018-05-10T05:41:56.212Z,13.68
2018-05-10T05:42:56.887Z,13.71
2018-05-10T05:43:57.561Z,13.68
2018-05-10T05:44:58.246Z,13.75
2018-05-10T05:45:58.917Z,13.70
2018-05-10T05:46:59.592Z,13.79
2018-05-10T05:48:00.267Z,13.74
2018-05-10T05:49:00.947Z,13.89
2018-05-10T05:50:01.623Z,13.86
2018-05-10T05:51:02.300Z,13.90
2018-05-10T05:52:03.020Z,13.95
2018-05-10T05:53:03.648Z,13.89
2018-05-10T05:54:04.325Z,14.00
2018-05-10T05:55:05.017Z,13.89
2018-05-10T05:56:05.679Z,13.95
2018-05-10T05:57:06.357Z,14.04
2018-05-10T05:58:07.031Z,14.00
2018-05-10T05:59:07.705Z,13.99
2018-05-10T06:00:08.380Z,14.11
2018-05-10T06:01:09.059Z,14.10
2018-05-10T06:02:09.738Z,14.08
2018-05-10T06:03:10.429Z,14.08
2018-05-10T06:04:11.120Z,14.08
2018-05-10T06:05:11.758Z,14.07
2018-05-10T06:06:12.475Z,14.10
2018-05-10T06:07:13.151Z,14.15
2018-05-10T06:08:13.827Z,14.08
2018-05-10T06:09:14.505Z,14.20
2018-05-10T06:10:15.180Z,14.22
2018-05-10T06:11:15.858Z,14.20
2018-05-10T06:12:16.533Z,14.20
2018-05-10T06:13:17.216Z,14.30
2018-05-10T06:14:17.894Z,14.25
2018-05-10T06:15:18.572Z,14.35
2018-05-10T06:16:19.251Z,14.29
2018-05-10T06:17:19.927Z,14.29
2018-05-10T06:18:20.606Z,14.45
2018-05-10T06:19:21.279Z,14.47
2018-05-10T06:20:21.963Z,14.45
2018-05-10T06:21:22.642Z,14.47
2018-05-10T06:22:23.322Z,14.47
2018-05-10T06:23:24.003Z,14.53
2018-05-10T06:24:24.677Z,14.54
2018-05-10T06:25:25.356Z,14.60
2018-05-10T06:26:26.030Z,14.58
2018-05-10T06:27:26.694Z,14.62
2018-05-10T06:28:27.386Z,14.59
2018-05-10T06:29:28.058Z,14.58
2018-05-10T06:30:28.739Z,14.54
2018-05-10T06:31:29.413Z,14.63
2018-05-10T06:32:30.096Z,14.68
2018-05-10T06:33:30.772Z,14.65
2018-05-10T06:34:31.448Z,14.63
2018-05-10T06:35:32.133Z,14.65
2018-05-10T06:36:32.809Z,14.84
2018-05-10T06:37:33.491Z,14.78
2018-05-10T06:38:34.166Z,14.86
2018-05-10T06:39:34.844Z,14.81
2018-05-10T06:40:35.520Z,14.79
2018-05-10T06:41:36.223Z,14.85
2018-05-10T06:42:36.878Z,14.96
2018-05-10T06:43:37.558Z,14.91
2018-05-10T06:44:38.234Z,14.92
2018-05-10T06:45:38.916Z,14.99
2018-05-10T06:46:39.593Z,15.10
2018-05-10T06:47:40.275Z,15.10
2018-05-10T06:48:40.956Z,15.06
2018-05-10T06:49:41.634Z,15.19
2018-05-10T06:50:42.314Z,15.21
2018-05-10T06:51:43.002Z,15.17
2018-05-10T06:52:43.684Z,15.27
2018-05-10T06:53:44.371Z,15.31
2018-05-10T06:54:45.107Z,15.33
2018-05-10T06:55:45.734Z,15.24
2018-05-10T06:56:46.422Z,15.33
2018-05-10T06:57:47.103Z,15.37
2018-05-10T06:58:47.782Z,15.29
2018-05-10T06:59:48.464Z,15.46
2018-05-10T07:00:49.140Z,15.40
2018-05-10T07:01:49.818Z,15.42
2018-05-10T07:02:50.503Z,15.51
2018-05-10T07:03:51.180Z,15.42
2018-05-10T07:04:51.854Z,15.42
2018-05-10T07:05:52.540Z,15.49
2018-05-10T07:06:53.219Z,15.59
2018-05-10T07:07:53.894Z,15.57
2018-05-10T07:08:54.577Z,15.72
2018-05-10T07:09:55.464Z,15.83
2018-05-10T07:10:55.934Z,15.84
2018-05-10T07:11:56.611Z,15.92
2018-05-10T07:12:57.289Z,16.04
2018-05-10T07:13:57.967Z,16.08
2018-05-10T07:14:58.644Z,15.98
2018-05-10T07:15:59.325Z,16.16
2018-05-10T07:17:00.011Z,16.08
2018-05-10T07:18:00.688Z,16.13
2018-05-10T07:19:01.367Z,16.04
2018-05-10T07:20:02.049Z,16.08
2018-05-10T07:21:02.725Z,16.01
2018-05-10T07:22:03.407Z,16.08
2018-05-10T07:23:04.082Z,16.04
2018-05-10T07:24:04.759Z,16.13
2018-05-10T07:25:05.534Z,16.17
2018-05-10T07:26:06.117Z,16.21
2018-05-10T07:27:06.794Z,16.09
2018-05-10T07:28:07.474Z,16.16
2018-05-10T07:29:08.156Z,16.26
2018-05-10T07:30:08.831Z,16.20
2018-05-10T07:31:09.513Z,16.35
2018-05-10T07:32:10.191Z,16.47
2018-05-10T07:33:10.870Z,16.33
2018-05-10T07:34:11.547Z,16.42
2018-05-10T07:35:12.226Z,16.49
2018-05-10T07:36:12.912Z,16.46
2018-05-10T07:37:13.588Z,16.64
2018-05-10T07:38:14.268Z,16.65
2018-05-10T07:39:14.953Z,16.66
2018-05-10T07:40:15.625Z,16.69
2018-05-10T07:41:16.321Z,16.75
2018-05-10T07:42:17.149Z,16.75
2018-05-10T07:43:17.825Z,16.66
2018-05-10T07:44:18.515Z,16.75
2018-05-10T07:45:19.200Z,16.71
2018-05-10T07:46:19.882Z,16.65
2018-05-10T07:47:20.653Z,16.84
2018-05-10T07:48:21.250Z,17.04
2018-05-10T07:49:21.928Z,16.99
2018-05-10T07:50:22.611Z,17.08
2018-05-10T07:51:23.291Z,17.09
2018-05-10T07:52:23.965Z,17.19
2018-05-10T07:53:24.653Z,17.12
2018-05-10T07:54:25.333Z,17.19
2018-05-10T07:55:26.019Z,17.27
2018-05-10T07:56:26.701Z,17.26
2018-05-10T07:57:27.378Z,17.30
2018-05-10T07:58:28.059Z,17.34
2018-05-10T07:59:28.744Z,17.44
2018-05-10T08:00:29.415Z,17.46
2018-05-10T08:01:30.101Z,17.39
2018-05-10T08:02:30.792Z,17.46
2018-05-10T08:03:31.474Z,17.57
2018-05-10T08:04:32.150Z,17.56
2018-05-10T08:05:32.828Z,17.57
2018-05-10T08:06:33.506Z,17.60
2018-05-10T08:07:34.187Z,17.70
2018-05-10T08:08:34.866Z,17.76
2018-05-10T08:09:35.545Z,17.80
2018-05-10T08:10:36.231Z,17.82
2018-05-10T08:11:36.907Z,17.90
2018-05-10T08:12:37.601Z,17.97
2018-05-10T08:13:38.283Z,18.05
2018-05-10T08:14:38.968Z,18.10
2018-05-10T08:15:39.650Z,18.16
2018-05-10T08:16:40.329Z,18.25
2018-05-10T08:17:41.012Z,18.23
2018-05-10T08:18:41.692Z,18.26
2018-05-10T08:19:42.388Z,18.31
2018-05-10T08:20:43.082Z,18.40
2018-05-10T08:21:43.762Z,18.55
2018-05-10T08:22:44.441Z,18.58
2018-05-10T08:23:45.130Z,18.59
2018-05-10T08:24:45.807Z,18.68
2018-05-10T08:25:46.493Z,18.65
2018-05-10T08:26:47.177Z,18.65
2018-05-10T08:27:47.859Z,18.73
2018-05-10T08:28:48.534Z,18.78
2018-05-10T08:29:49.224Z,18.83
2018-05-10T08:30:49.900Z,18.93
2018-05-10T08:31:50.591Z,19.07
2018-05-10T08:32:51.271Z,19.19
2018-05-10T08:33:51.964Z,19.31
2018-05-10T08:34:52.645Z,19.44
2018-05-10T08:35:53.331Z,19.59
2018-05-10T08:36:54.011Z,19.63
2018-05-10T08:37:54.689Z,19.56
2018-05-10T08:38:55.369Z,19.62
2018-05-10T08:39:56.051Z,19.69
2018-05-10T08:40:56.732Z,19.55
2018-05-10T08:41:57.419Z,19.63
2018-05-10T08:42:58.110Z,19.62
2018-05-10T08:43:58.795Z,19.70
2018-05-10T08:44:59.565Z,19.82
2018-05-10T08:46:00.159Z,19.91
2018-05-10T08:47:00.838Z,20.10
2018-05-10T08:48:01.523Z,20.25
2018-05-10T08:49:02.213Z,20.31
2018-05-10T08:50:02.898Z,20.34
2018-05-10T08:51:03.578Z,20.48
2018-05-10T08:52:04.265Z,20.40
2018-05-10T08:53:04.947Z,20.41
2018-05-10T08:54:05.635Z,20.39
2018-05-10T08:55:06.309Z,20.55
2018-05-10T08:56:06.997Z,20.69
2018-05-10T08:57:07.591Z,20.62
2018-05-10T08:58:08.376Z,20.72
2018-05-10T08:59:09.054Z,20.60
2018-05-10T09:00:09.731Z,20.75
2018-05-10T09:01:10.413Z,20.74
2018-05-10T09:02:11.101Z,20.70
2018-05-10T09:03:11.788Z,20.66
2018-05-10T09:04:12.474Z,20.72
2018-05-10T09:05:13.161Z,20.65
2018-05-10T09:06:13.845Z,20.63
2018-05-10T09:07:14.536Z,20.58
2018-05-10T09:08:15.216Z,20.74
2018-05-10T09:09:15.902Z,20.81
2018-05-10T09:10:16.586Z,20.99
2018-05-10T09:11:17.267Z,20.87
2018-05-10T09:12:17.947Z,20.88
2018-05-10T09:13:18.629Z,20.82
2018-05-10T09:14:19.310Z,20.99
2018-05-10T09:15:19.990Z,21.11
2018-05-10T09:16:20.676Z,21.27
2018-05-10T09:17:21.355Z,21.46
2018-05-10T09:18:22.037Z,21.39
2018-05-10T09:19:22.722Z,21.42
2018-05-10T09:20:23.489Z,21.42
2018-05-10T09:21:24.085Z,21.29
2018-05-10T09:22:24.766Z,21.33
2018-05-10T09:23:25.446Z,21.40
2018-05-10T09:24:26.126Z,21.57
2018-05-10T09:25:26.804Z,21.52
2018-05-10T09:26:27.487Z,21.51
2018-05-10T09:27:28.173Z,21.43
2018-05-10T09:28:28.855Z,21.40
2018-05-10T09:29:29.540Z,21.42
2018-05-10T09:30:30.231Z,21.45
2018-05-10T09:31:30.967Z,21.33
2018-05-10T09:32:31.594Z,21.20
2018-05-10T09:33:32.278Z,21.21
2018-05-10T09:34:32.957Z,21.32
2018-05-10T09:35:33.641Z,21.20
2018-05-10T09:36:34.318Z,21.25
2018-05-10T09:37:35.000Z,21.40
2018-05-10T09:38:35.681Z,21.40
2018-05-10T09:39:36.430Z,21.42
2018-05-10T09:40:37.042Z,21.37
2018-05-10T09:41:37.723Z,21.50
2018-05-10T09:42:38.408Z,21.39
2018-05-10T09:43:39.089Z,21.48
2018-05-10T09:44:39.771Z,21.52
2018-05-10T09:45:40.462Z,21.48
2018-05-10T09:46:41.149Z,21.54
2018-05-10T09:47:41.826Z,21.43
2018-05-10T09:48:42.523Z,21.62
2018-05-10T09:49:43.207Z,21.37
2018-05-10T09:50:43.889Z,21.76
2018-05-10T09:51:44.568Z,21.80
2018-05-10T09:52:45.273Z,22.00
2018-05-10T09:53:45.946Z,22.10
2018-05-10T09:54:46.679Z,22.08
2018-05-10T09:55:47.368Z,22.23
2018-05-10T09:56:48.047Z,22.41
2018-05-10T09:57:48.729Z,22.38
2018-05-10T09:58:49.413Z,22.36
2018-05-10T09:59:50.146Z,22.26
2018-05-10T10:00:50.780Z,22.45
2018-05-10T10:01:51.464Z,22.26
2018-05-10T10:02:52.151Z,22.17
2018-05-10T10:03:52.828Z,22.35
2018-05-10T10:04:53.511Z,22.36
2018-05-10T10:05:54.194Z,22.15
2018-05-10T10:06:54.874Z,22.35
2018-05-10T10:07:55.551Z,22.36
2018-05-10T10:08:56.235Z,22.45
2018-05-10T10:09:56.920Z,22.63
2018-05-10T10:10:57.607Z,22.45
2018-05-10T10:11:58.295Z,22.45
2018-05-10T10:12:58.972Z,22.45
2018-05-10T10:13:59.655Z,21.98
2018-05-10T10:15:00.337Z,21.72
2018-05-10T10:16:01.017Z,22.00
2018-05-10T10:17:01.698Z,21.91
2018-05-10T10:18:02.380Z,22.08
2018-05-10T10:19:03.062Z,22.11
2018-05-10T10:20:03.748Z,22.08
2018-05-10T10:21:04.441Z,22.26
2018-05-10T10:22:05.122Z,22.10
2018-05-10T10:23:05.804Z,21.96
2018-05-10T10:24:06.482Z,21.80
2018-05-10T10:25:07.233Z,21.75
2018-05-10T10:26:07.858Z,21.95
2018-05-10T10:27:08.537Z,22.02
2018-05-10T10:28:09.225Z,22.13
2018-05-10T10:29:09.903Z,22.14
2018-05-10T10:30:10.586Z,22.06
2018-05-10T10:31:11.266Z,21.89
2018-05-10T10:32:11.955Z,21.72
2018-05-10T10:33:12.646Z,21.98
2018-05-10T10:34:13.329Z,21.82
2018-05-10T10:35:14.023Z,21.83
2018-05-10T10:36:14.706Z,21.92
2018-05-10T10:37:15.388Z,21.93
2018-05-10T10:38:16.100Z,21.85
2018-05-10T10:39:16.756Z,21.79
2018-05-10T10:40:17.448Z,21.75
2018-05-10T10:41:18.128Z,21.66
2018-05-10T10:42:18.816Z,21.61
2018-05-10T10:43:19.503Z,21.62
2018-05-10T10:44:20.180Z,21.67
2018-05-10T10:45:20.906Z,21.75
2018-05-10T10:46:21.540Z,21.73
2018-05-10T10:47:22.219Z,21.55
2018-05-10T10:48:22.899Z,21.32
2018-05-10T10:49:23.585Z,21.43
2018-05-10T10:50:24.266Z,21.29
2018-05-10T10:51:24.946Z,21.43
2018-05-10T10:52:25.642Z,21.43
2018-05-10T10:53:26.323Z,21.43
2018-05-10T10:54:27.003Z,21.24
2018-05-10T10:55:27.686Z,21.24
2018-05-10T10:56:28.366Z,21.30
2018-05-10T10:57:29.050Z,21.30
2018-05-10T10:58:29.732Z,21.12
2018-05-10T10:59:30.413Z,20.99
2018-05-10T11:00:31.095Z,21.03
2018-05-10T11:01:31.800Z,21.14
2018-05-10T11:02:32.494Z,21.18
2018-05-10T11:03:33.178Z,20.84
2018-05-10T11:04:33.861Z,20.88
2018-05-10T11:05:34.551Z,20.81
2018-05-10T11:06:35.238Z,20.93
2018-05-10T11:07:35.928Z,20.75
2018-05-10T11:08:36.609Z,20.77
2018-05-10T11:09:37.291Z,20.70
2018-05-10T11:10:37.971Z,20.67
2018-05-10T11:11:38.655Z,20.63
2018-05-10T11:12:39.338Z,20.60
2018-05-10T11:13:40.020Z,20.65
2018-05-10T11:14:40.699Z,20.55
2018-05-10T11:15:41.382Z,20.36
2018-05-10T11:16:42.064Z,20.37
2018-05-10T11:17:42.748Z,20.24
2018-05-10T11:18:43.433Z,20.39
2018-05-10T11:19:44.115Z,20.40
2018-05-10T11:20:44.879Z,20.41
2018-05-10T11:21:45.475Z,20.18
2018-05-10T11:22:46.150Z,20.36
2018-05-10T11:23:46.838Z,20.40
2018-05-10T11:24:47.574Z,20.32
2018-05-10T11:25:48.199Z,20.31
2018-05-10T11:26:48.881Z,20.36
2018-05-10T11:27:49.571Z,20.26
2018-05-10T11:28:50.251Z,20.25
2018-05-10T11:29:50.932Z,20.14
2018-05-10T11:30:51.612Z,20.02
2018-05-10T11:31:52.292Z,20.26
2018-05-10T11:32:53.011Z,20.24
2018-05-10T11:33:53.677Z,20.34
2018-05-10T11:34:54.358Z,20.26
2018-05-10T11:35:55.043Z,20.14
2018-05-10T11:36:55.724Z,20.07
2018-05-10T11:37:56.404Z,20.25
2018-05-10T11:38:57.084Z,20.13
2018-05-10T11:39:57.763Z,20.11
2018-05-10T11:40:58.544Z,19.99
2018-05-10T11:41:59.131Z,20.02
2018-05-10T11:42:59.819Z,20.28
2018-05-10T11:44:00.509Z,20.31
2018-05-10T11:45:01.269Z,20.43
2018-05-10T11:46:01.897Z,20.50
2018-05-10T11:47:02.575Z,20.25
2018-05-10T11:48:03.260Z,20.22
2018-05-10T11:49:03.951Z,20.22
2018-05-10T11:50:04.629Z,20.14
2018-05-10T11:51:05.316Z,20.24
2018-05-10T11:52:06.003Z,19.89
2018-05-10T11:53:06.690Z,20.03
2018-05-10T11:54:07.375Z,20.18
2018-05-10T11:55:08.119Z,20.22
2018-05-10T11:56:08.834Z,19.79
2018-05-10T11:57:09.521Z,19.36
2018-05-10T11:58:10.200Z,19.54
2018-05-10T11:59:10.884Z,19.41
2018-05-10T12:00:11.566Z,19.54
2018-05-10T12:01:12.245Z,19.29
2018-05-10T12:02:12.939Z,19.44
2018-05-10T12:03:13.621Z,19.40
2018-05-10T12:04:14.297Z,19.24
2018-05-10T12:05:15.033Z,19.08
2018-05-10T12:06:15.712Z,19.18
2018-05-10T12:07:16.395Z,19.26
2018-05-10T12:08:17.068Z,19.12
2018-05-10T12:09:17.765Z,19.44
2018-05-10T12:10:18.449Z,19.54
2018-05-10T12:11:19.131Z,19.39
2018-05-10T12:12:19.859Z,19.39
2018-05-10T12:13:20.542Z,19.37
2018-05-10T12:14:21.231Z,19.36
2018-05-10T12:15:21.926Z,19.34
2018-05-10T12:16:22.607Z,19.00
2018-05-10T12:17:23.291Z,19.40
2018-05-10T12:18:23.970Z,19.34
2018-05-10T12:19:24.652Z,19.45
2018-05-10T12:20:25.384Z,19.49
2018-05-10T12:21:26.017Z,19.21
2018-05-10T12:22:26.698Z,19.30
2018-05-10T12:23:27.381Z,19.47
2018-05-10T12:24:28.080Z,19.21
2018-05-10T12:25:28.845Z,19.45
2018-05-10T12:26:29.445Z,19.54
2018-05-10T12:27:30.133Z,19.51
2018-05-10T12:28:30.812Z,19.56
2018-05-10T12:29:31.489Z,19.37
2018-05-10T12:30:32.259Z,19.15
2018-05-10T12:31:32.857Z,19.37
2018-05-10T12:32:33.538Z,19.24
2018-05-10T12:33:34.221Z,19.47
2018-05-10T12:34:34.901Z,19.58
2018-05-10T12:35:35.583Z,19.59
2018-05-10T12:36:36.265Z,19.66
2018-05-10T12:37:37.012Z,19.55
2018-05-10T12:38:37.696Z,19.47
2018-05-10T12:39:38.382Z,18.99
2018-05-10T12:40:39.066Z,19.21
2018-05-10T12:41:39.814Z,19.41
2018-05-10T12:42:40.439Z,19.55
2018-05-10T12:43:41.119Z,19.62
2018-05-10T12:44:41.797Z,19.73
2018-05-10T12:45:42.481Z,19.48
2018-05-10T12:46:43.160Z,19.49
2018-05-10T12:47:43.851Z,19.73
2018-05-10T12:48:44.588Z,19.31
2018-05-10T12:49:45.215Z,19.39
2018-05-10T12:50:45.912Z,19.39
2018-05-10T12:51:46.595Z,19.45
2018-05-10T12:52:47.284Z,19.77
2018-05-10T12:53:47.969Z,19.94
2018-05-10T12:54:48.658Z,19.84
2018-05-10T12:55:49.346Z,19.92
2018-05-10T12:56:50.028Z,19.55
2018-05-10T12:57:50.706Z,19.70
2018-05-10T12:58:51.388Z,19.71
2018-05-10T12:59:52.077Z,19.91
2018-05-10T13:00:52.765Z,19.95